createdAt,value
2023-05-04T00:01:20.884Z,59.46
2023-05-04T00:06:22.625Z,59.53
2023-05-04T00:11:25.954Z,59.63
2023-05-04T00:16:27.744Z,60.35
2023-05-04T00:21:29.495Z,60.72
2023-05-04T00:26:32.566Z,61.14
2023-05-04T00:31:34.669Z,61.43
2023-05-04T00:36:37.606Z,61.32
2023-05-04T00:41:41.069Z,62.19
2023-05-04T00:46:42.869Z,62.09
2023-05-04T00:51:44.604Z,61.96
2023-05-04T00:56:47.647Z,62.68
2023-05-04T01:01:49.530Z,63.43
2023-05-04T01:06:55.561Z,63.51
2023-05-04T01:12:01.176Z,62.98
2023-05-04T01:17:03.953Z,63.27
2023-05-04T01:22:07.172Z,63.91
2023-05-04T01:27:09.702Z,65.43
2023-05-04T01:32:11.903Z,65.84
2023-05-04T01:37:14.970Z,66.06
2023-05-04T01:42:16.702Z,65.93
2023-05-04T01:47:18.768Z,65.07
2023-05-04T01:52:21.799Z,65.07
2023-05-04T01:57:23.535Z,64.05
2023-05-04T02:02:25.633Z,63.53
2023-05-04T02:07:28.746Z,63.88
2023-05-04T02:12:30.551Z,64.02
2023-05-04T02:17:33.832Z,65.27
2023-05-04T02:22:36.891Z,66.02
2023-05-04T02:27:38.630Z,66.62
2023-05-04T02:32:41.061Z,66.15
2023-05-04T02:37:44.239Z,66.27
2023-05-04T02:42:45.961Z,66.63
2023-05-04T02:47:47.691Z,66.97
2023-05-04T02:52:50.747Z,66.96
2023-05-04T02:57:52.469Z,67.43
2023-05-04T03:02:54.186Z,66.94
2023-05-04T03:07:57.247Z,66.04
2023-05-04T03:13:03.768Z,66.23
2023-05-04T03:18:06.138Z,66.34
2023-05-04T03:23:09.705Z,65.68
2023-05-04T03:28:11.769Z,65.15
2023-05-04T03:33:13.633Z,66.63
2023-05-04T03:38:17.226Z,66.83
2023-05-04T03:43:19.034Z,67.62
2023-05-04T03:48:20.971Z,67.28
2023-05-04T03:53:25.466Z,66.28
2023-05-04T03:58:27.312Z,66.71
2023-05-04T04:03:29.335Z,66.83
2023-05-04T04:08:33.214Z,66.75
2023-05-04T04:13:35.007Z,66.20
2023-05-04T04:18:36.805Z,67.09
2023-05-04T04:23:39.864Z,67.96
2023-05-04T04:28:41.630Z,68.58
2023-05-04T04:33:43.785Z,68.28
2023-05-04T04:38:47.459Z,67.49
2023-05-04T04:43:49.224Z,67.61
2023-05-04T04:48:52.472Z,67.20
2023-05-04T04:53:55.502Z,67.49
2023-05-04T04:58:57.710Z,67.89
2023-05-04T05:03:59.410Z,68.29
2023-05-04T05:09:02.650Z,68.42
2023-05-04T05:14:04.371Z,68.17
2023-05-04T05:19:06.040Z,67.69
2023-05-04T05:24:09.115Z,67.79
2023-05-04T05:29:11.149Z,67.20
2023-05-04T05:34:12.858Z,66.97
2023-05-04T05:39:16.310Z,66.47
2023-05-04T05:44:18.028Z,65.98
2023-05-04T05:49:19.754Z,65.06
2023-05-04T05:54:26.149Z,64.09
2023-05-04T05:59:27.865Z,63.61
2023-05-04T06:04:29.569Z,62.87
2023-05-04T06:09:32.611Z,62.59
2023-05-04T06:14:34.367Z,61.84
2023-05-04T06:19:37.252Z,59.63
2023-05-04T06:24:40.322Z,59.88
2023-05-04T06:29:42.150Z,59.35
2023-05-04T06:34:43.835Z,57.93
2023-05-04T06:39:47.028Z,56.47
2023-05-04T06:44:48.751Z,54.83
2023-05-04T06:49:50.474Z,55.66
2023-05-04T06:54:53.553Z,54.63
2023-05-04T06:59:55.282Z,52.47
2023-05-04T07:04:57.412Z,51.13
2023-05-04T07:10:00.440Z,49.68
2023-05-04T07:15:02.180Z,48.28
2023-05-04T07:20:04.774Z,47.57
2023-05-04T07:25:08.640Z,45.46
2023-05-04T07:30:11.204Z,43.86
2023-05-04T07:35:13.197Z,41.78
2023-05-04T07:40:16.664Z,40.93
2023-05-04T07:45:18.567Z,39.26
2023-05-04T07:50:20.597Z,34.72
2023-05-04T07:55:24.672Z,29.83
2023-05-04T08:00:26.589Z,28.51
2023-05-04T08:05:28.276Z,27.47
2023-05-04T08:10:31.344Z,27.42
2023-05-04T08:15:33.052Z,27.02
2023-05-04T08:20:34.748Z,26.33
2023-05-04T08:25:37.775Z,26.54
2023-05-04T08:30:39.481Z,26.84
2023-05-04T08:35:41.250Z,27.71
2023-05-04T08:40:44.306Z,27.83
2023-05-04T08:45:46.102Z,27.75
2023-05-04T08:50:47.863Z,27.59
2023-05-04T08:55:50.926Z,28.08
2023-05-04T09:00:53.416Z,28.18
2023-05-04T09:05:55.304Z,28.27
2023-05-04T09:10:58.414Z,26.76
2023-05-04T09:16:00.278Z,26.01
2023-05-04T09:21:02.022Z,25.45
2023-05-04T09:26:05.035Z,24.85
2023-05-04T09:31:07.422Z,24.59
2023-05-04T09:36:14.158Z,24.01
2023-05-04T09:41:17.238Z,24.53
2023-05-04T09:46:19.172Z,24.93
2023-05-04T09:51:22.539Z,23.72
2023-05-04T09:56:33.312Z,23.63
2023-05-04T10:01:35.029Z,24.62
2023-05-04T10:06:37.646Z,24.85
2023-05-04T10:11:40.676Z,25.20
2023-05-04T10:16:46.927Z,25.47
2023-05-04T10:21:59.273Z,25.65
2023-05-04T10:27:05.536Z,24.71
2023-05-04T10:32:17.232Z,24.60
2023-05-04T10:37:19.440Z,24.70
2023-05-04T10:42:22.577Z,25.54
2023-05-04T10:47:27.941Z,26.65
2023-05-04T10:52:30.178Z,27.24
2023-05-04T10:57:33.214Z,26.67
2023-05-04T11:02:35.141Z,27.10
2023-05-04T11:07:38.164Z,27.61
2023-05-04T11:12:42.825Z,28.08
2023-05-04T11:17:45.159Z,29.45
2023-05-04T11:22:47.383Z,29.08
2023-05-04T11:27:50.486Z,29.32
2023-05-04T11:32:54.027Z,29.00
2023-05-04T11:37:55.818Z,29.64
2023-05-04T11:42:59.081Z,28.92
2023-05-04T11:48:00.995Z,30.84
2023-05-04T11:53:04.042Z,30.16
2023-05-04T11:58:08.024Z,30.53
2023-05-04T12:03:12.891Z,30.01
2023-05-04T12:08:22.434Z,29.77
2023-05-04T12:13:25.554Z,32.03
2023-05-04T12:18:29.685Z,30.39
2023-05-04T12:23:31.761Z,28.48
2023-05-04T12:28:35.695Z,30.61
2023-05-04T12:33:37.525Z,30.85
2023-05-04T12:38:39.227Z,30.34
2023-05-04T12:43:42.960Z,28.41
2023-05-04T12:48:44.642Z,29.53
2023-05-04T12:53:46.431Z,29.76
2023-05-04T12:58:49.445Z,30.33
2023-05-04T13:03:51.343Z,30.04
2023-05-04T13:08:53.127Z,30.12
2023-05-04T13:13:56.344Z,29.85
2023-05-04T13:18:58.082Z,29.38
2023-05-04T13:24:00.342Z,30.48
2023-05-04T13:29:04.369Z,30.54
2023-05-04T13:34:06.139Z,30.68
2023-05-04T13:39:07.973Z,31.73
2023-05-04T13:44:11.160Z,32.75
2023-05-04T13:49:12.859Z,31.58
2023-05-04T13:54:14.550Z,30.89
2023-05-04T13:59:17.583Z,31.62
2023-05-04T14:04:19.326Z,33.53
2023-05-04T14:09:21.125Z,31.45
2023-05-04T14:14:24.187Z,33.29
2023-05-04T14:19:26.923Z,32.65
2023-05-04T14:24:29.505Z,33.57
2023-05-04T14:29:33.512Z,32.89
2023-05-04T14:34:36.056Z,32.38
2023-05-04T14:39:39.332Z,31.96
2023-05-04T14:44:42.422Z,31.99
2023-05-04T14:49:44.120Z,32.39
2023-05-04T14:54:46.152Z,31.98
2023-05-04T14:59:49.163Z,32.57
2023-05-04T15:04:50.904Z,31.35
2023-05-04T15:09:52.646Z,32.43
2023-05-04T15:14:55.741Z,32.16
2023-05-04T15:19:57.491Z,32.62
2023-05-04T15:24:59.242Z,33.02
2023-05-04T15:30:02.269Z,33.39
2023-05-04T15:35:06.379Z,33.86
2023-05-04T15:40:09.368Z,34.22
2023-05-04T15:45:12.766Z,33.96
2023-05-04T15:50:14.507Z,34.61
2023-05-04T15:55:24.683Z,34.29
2023-05-04T16:00:28.721Z,34.30
2023-05-04T16:05:30.411Z,34.33
2023-05-04T16:10:33.151Z,34.58
2023-05-04T16:15:36.807Z,34.76
2023-05-04T16:20:38.559Z,34.89
2023-05-04T16:25:40.256Z,34.33
2023-05-04T16:30:45.596Z,34.71
2023-05-04T16:35:47.447Z,35.71
2023-05-04T16:40:49.183Z,35.08
2023-05-04T16:45:52.263Z,35.02
2023-05-04T16:50:54.022Z,35.30
2023-05-04T16:55:55.889Z,34.92
2023-05-04T17:00:58.945Z,35.02
2023-05-04T17:06:00.709Z,34.30
2023-05-04T17:11:02.407Z,34.83
2023-05-04T17:16:06.395Z,34.70
2023-05-04T17:21:08.145Z,34.16
2023-05-04T17:26:10.301Z,34.33
2023-05-04T17:31:13.406Z,34.69
2023-05-04T17:36:15.113Z,34.38
2023-05-04T17:41:17.085Z,34.68
2023-05-04T17:46:20.420Z,34.83
2023-05-04T17:51:22.955Z,34.84
2023-05-04T17:56:24.761Z,35.21
2023-05-04T18:01:28.021Z,35.19
2023-05-04T18:06:29.985Z,35.38
2023-05-04T18:11:31.789Z,35.79
2023-05-04T18:16:37.619Z,35.67
2023-05-04T18:21:39.497Z,36.40
2023-05-04T18:26:42.451Z,35.97
2023-05-04T18:31:45.589Z,36.11
2023-05-04T18:36:49.259Z,35.96
2023-05-04T18:41:51.124Z,35.93
2023-05-04T18:46:54.174Z,35.68
2023-05-04T18:51:55.915Z,36.12
2023-05-04T18:56:58.050Z,35.37
2023-05-04T19:02:01.793Z,35.82
2023-05-04T19:07:03.576Z,35.78
2023-05-04T19:12:05.756Z,36.75
2023-05-04T19:17:09.060Z,37.15
2023-05-04T19:22:13.096Z,37.58
2023-05-04T19:27:14.817Z,38.44
2023-05-04T19:32:24.283Z,39.28
2023-05-04T19:37:26.762Z,39.56
2023-05-04T19:42:28.601Z,40.21
2023-05-04T19:47:32.267Z,40.98
2023-05-04T19:52:36.167Z,41.84
2023-05-04T19:57:37.891Z,41.98
2023-05-04T20:02:41.363Z,42.88
2023-05-04T20:07:43.143Z,42.89
2023-05-04T20:12:44.914Z,43.53
2023-05-04T20:17:48.116Z,43.89
2023-05-04T20:22:51.895Z,44.75
2023-05-04T20:27:54.007Z,45.17
2023-05-04T20:32:57.236Z,45.54
2023-05-04T20:37:59.242Z,45.27
2023-05-04T20:43:01.596Z,45.54
2023-05-04T20:48:05.286Z,45.51
2023-05-04T20:53:07.326Z,45.76
2023-05-04T20:58:09.146Z,45.75
2023-05-04T21:03:12.294Z,46.02
2023-05-04T21:08:14.049Z,45.70
2023-05-04T21:13:15.938Z,45.63
2023-05-04T21:18:19.634Z,46.41
2023-05-04T21:23:21.483Z,47.12
2023-05-04T21:28:23.194Z,47.19
2023-05-04T21:33:26.285Z,47.10
2023-05-04T21:38:28.005Z,47.81
2023-05-04T21:43:29.735Z,47.97
2023-05-04T21:48:33.452Z,48.36
2023-05-04T21:53:35.297Z,48.04
2023-05-04T21:58:38.100Z,48.31
2023-05-04T22:03:41.280Z,48.49
2023-05-04T22:08:42.993Z,48.40
2023-05-04T22:13:44.691Z,48.55
2023-05-04T22:18:47.721Z,49.11
2023-05-04T22:23:49.453Z,48.95
2023-05-04T22:28:51.148Z,48.94
2023-05-04T22:33:54.222Z,48.58
2023-05-04T22:38:55.925Z,48.83
2023-05-04T22:43:57.689Z,49.39
2023-05-04T22:49:00.710Z,49.54
2023-05-04T22:54:02.460Z,49.55
2023-05-04T22:59:04.659Z,49.85
2023-05-04T23:04:07.764Z,50.27
2023-05-04T23:09:09.609Z,50.29
2023-05-04T23:14:11.603Z,50.86
2023-05-04T23:19:14.660Z,51.25
2023-05-04T23:24:16.393Z,51.71
2023-05-04T23:29:18.137Z,52.26
2023-05-04T23:34:21.377Z,52.62
2023-05-04T23:39:23.077Z,52.87
2023-05-04T23:44:24.845Z,53.10
2023-05-04T23:49:27.935Z,52.75
2023-05-04T23:54:29.643Z,52.52
2023-05-04T23:59:31.381Z,52.38
